createdAt,value
2022-08-19T00:23:37.689Z,25.52
2022-08-19T00:53:41.909Z,20.88
2022-08-19T01:23:46.784Z,16.52
2022-08-19T01:53:53.118Z,17.17
2022-08-19T02:23:57.787Z,19.75
2022-08-19T02:54:01.985Z,18.80
2022-08-19T03:24:07.974Z,19.25
2022-08-19T03:54:14.449Z,14.73
2022-08-19T04:29:42.708Z,19.88
2022-08-19T04:59:49.012Z,21.08
2022-08-19T05:29:53.122Z,25.25
2022-08-19T05:59:59.092Z,22.60
2022-08-19T06:30:03.921Z,20.88
2022-08-19T07:00:12.929Z,26.33
2022-08-19T07:30:17.420Z,23.40
2022-08-19T08:00:24.382Z,27.88
2022-08-19T08:30:31.139Z,29.00
2022-08-19T09:00:39.565Z,26.70
2022-08-19T09:30:43.675Z,15.57
2022-08-19T10:30:55.751Z,9.38
2022-08-19T11:01:00.783Z,7.72
2022-08-19T11:31:05.283Z,8.20
2022-08-19T12:01:10.492Z,12.48
2022-08-19T12:31:14.725Z,8.75
2022-08-19T13:01:23.013Z,10.50
2022-08-19T13:31:46.514Z,9.73
2022-08-19T14:01:50.912Z,6.55
2022-08-19T14:31:55.068Z,11.15
2022-08-19T15:02:00.624Z,7.15
2022-08-19T15:32:26.615Z,6.20
2022-08-19T16:02:48.732Z,6.30
2022-08-19T16:32:57.713Z,7.22
2022-08-19T17:03:09.304Z,8.82
2022-08-19T17:33:16.711Z,10.13
2022-08-19T18:03:20.924Z,10.15
2022-08-19T18:33:25.576Z,8.35
2022-08-19T19:03:29.772Z,5.78
2022-08-19T19:33:33.934Z,4.65
2022-08-19T20:03:38.195Z,3.88
2022-08-19T20:33:42.488Z,2.90
2022-08-19T21:03:46.623Z,3.90
2022-08-19T21:33:50.821Z,3.97
2022-08-19T22:03:54.952Z,5.45
2022-08-19T22:33:59.099Z,4.55
2022-08-19T23:04:03.862Z,4.57
2022-08-19T23:34:08.224Z,2.70
